Brownsville, TX (78521)

9:26 PM CDT on August 27, 2015 (GMT -0500)
Neighborhood | | Change Station
CLOSE
Current Station
Personal Weather Station
Location: Brownsville, TX
Elevation: 26 ft
Nearby Weather Stations

Elev 26 ft 25.99 °N, 97.47 °W | Updated 1 minute ago

Mostly Cloudy
Mostly Cloudy
78.9 °F
Feels Like 81 °F
N
1.0
Wind Variable Wind from ENE
Gusts 1.0 mph

Today
High -- | Low -- °F
--% Chance of Precip.
Yesterday
High -- | Low -- °F
Precip. -- in
7:07 AM 7:54 PM
Waxing Gibbous, 96% visible
Pressure 29.99 in
Visibility 10.0 miles
Clouds Mostly Cloudy 3600 ft
Heat Index 81 °F
Dew Point 67 °F
Humidity 68%
Rainfall 0.00 in
Snow Depth Not available.
UV 0 out of 12
Pollen 7.30 out of 12
Air Quality Not available.
Flu Activity Not available.
METAR KBRO 280153Z 07004KT 10SM BKN036 27/21 A2999 RMK AO2 SLP154 T02670206
Pressure 29.99 in
Visibility 10.0 miles
Clouds Mostly Cloudy 3600 ft
Heat Index 81 °F
Dew Point 67 °F
Humidity 68%
Rainfall 0.00 in
Snow Depth Not available.
UV 0 out of 12
Pollen 7.30 out of 12
Air Quality Not available.
Flu Activity Not available.
METAR KBRO 280153Z 07004KT 10SM BKN036 27/21 A2999 RMK AO2 SLP154 T02670206

10-Day Weather Forecast

×

Almanac

Astronomy

Aug. 27, 2015 Rise Set
Actual Time
Civil Twilight
Nautical Twilight
Astronomical Twilight
Moon
Length of Visible Light
Length of Day
Tomorrow will be .
, % of the Moon is Illuminated

Today's Extremes

State Highs State Lows

Community

WunderPhotos

Upload Photos

1,850,301 photos uploaded!

WunderBlogs® & News

Nearby

Air Quality

  Air Quality AQ Index Pollutant
Not available.

Snow Depth

Station Depth Elevation

Earthquake Activity

City Distance Mag. Time & Date
Minimum magnitude displayed is 2.5.

Coastal Water Temperatures

Place Temperature

Stations

Nearby Weather Stations

Station Location Temp. Windchill Dew Point Humidity Wind Precip. Elev Updated Type